sensor_id;sensor_type;location;lat;lon;timestamp;P1;durP1;ratioP1;P2;durP2;ratioP2
15297;SDS011;7750;48.796;9.026;2023-04-20T00:04:35;4.70;;;4.20;;
15297;SDS011;7750;48.796;9.026;2023-04-20T00:09:39;6.00;;;4.83;;
15297;SDS011;7750;48.796;9.026;2023-04-20T00:14:42;6.70;;;4.27;;
15297;SDS011;7750;48.796;9.026;2023-04-20T00:19:50;8.60;;;5.17;;
15297;SDS011;7750;48.796;9.026;2023-04-20T00:24:54;5.47;;;4.47;;
15297;SDS011;7750;48.796;9.026;2023-04-20T00:29:55;5.83;;;4.10;;
15297;SDS011;7750;48.796;9.026;2023-04-20T00:34:56;8.40;;;4.50;;
15297;SDS011;7750;48.796;9.026;2023-04-20T00:39:59;5.00;;;4.50;;
15297;SDS011;7750;48.796;9.026;2023-04-20T00:45:00;6.00;;;5.17;;
15297;SDS011;7750;48.796;9.026;2023-04-20T00:50:01;5.90;;;4.90;;
15297;SDS011;7750;48.796;9.026;2023-04-20T00:55:02;5.30;;;4.63;;
15297;SDS011;7750;48.796;9.026;2023-04-20T01:00:07;5.27;;;4.57;;
15297;SDS011;7750;48.796;9.026;2023-04-20T01:05:13;6.53;;;5.00;;
15297;SDS011;7750;48.796;9.026;2023-04-20T01:10:13;5.10;;;4.60;;
15297;SDS011;7750;48.796;9.026;2023-04-20T01:15:24;6.73;;;5.47;;
15297;SDS011;7750;48.796;9.026;2023-04-20T01:20:25;5.97;;;5.17;;
15297;SDS011;7750;48.796;9.026;2023-04-20T01:25:28;6.10;;;4.87;;
15297;SDS011;7750;48.796;9.026;2023-04-20T01:30:35;5.83;;;5.23;;
15297;SDS011;7750;48.796;9.026;2023-04-20T01:35:47;6.00;;;5.00;;
15297;SDS011;7750;48.796;9.026;2023-04-20T01:40:50;6.80;;;5.03;;
15297;SDS011;7750;48.796;9.026;2023-04-20T01:45:51;7.53;;;5.77;;
15297;SDS011;7750;48.796;9.026;2023-04-20T01:51:04;11.70;;;5.07;;
15297;SDS011;7750;48.796;9.026;2023-04-20T01:56:08;6.13;;;5.20;;
15297;SDS011;7750;48.796;9.026;2023-04-20T02:01:09;6.13;;;4.47;;
15297;SDS011;7750;48.796;9.026;2023-04-20T02:06:10;7.37;;;5.57;;
15297;SDS011;7750;48.796;9.026;2023-04-20T02:11:11;5.07;;;4.23;;
15297;SDS011;7750;48.796;9.026;2023-04-20T02:16:12;6.33;;;5.10;;
15297;SDS011;7750;48.796;9.026;2023-04-20T02:21:13;9.23;;;5.50;;
15297;SDS011;7750;48.796;9.026;2023-04-20T02:26:15;6.00;;;4.50;;
15297;SDS011;7750;48.796;9.026;2023-04-20T02:31:16;11.23;;;5.57;;
15297;SDS011;7750;48.796;9.026;2023-04-20T02:36:20;6.37;;;4.53;;
15297;SDS011;7750;48.796;9.026;2023-04-20T02:41:21;8.80;;;5.23;;
15297;SDS011;7750;48.796;9.026;2023-04-20T02:46:21;5.90;;;4.73;;
15297;SDS011;7750;48.796;9.026;2023-04-20T02:51:25;6.73;;;5.00;;
15297;SDS011;7750;48.796;9.026;2023-04-20T02:56:25;6.17;;;4.77;;
15297;SDS011;7750;48.796;9.026;2023-04-20T03:01:26;9.80;;;5.40;;
15297;SDS011;7750;48.796;9.026;2023-04-20T03:06:27;5.90;;;5.30;;
15297;SDS011;7750;48.796;9.026;2023-04-20T03:11:27;6.37;;;4.73;;
15297;SDS011;7750;48.796;9.026;2023-04-20T03:16:28;6.33;;;4.70;;
15297;SDS011;7750;48.796;9.026;2023-04-20T03:21:29;6.30;;;4.87;;
15297;SDS011;7750;48.796;9.026;2023-04-20T03:26:30;6.33;;;5.10;;
15297;SDS011;7750;48.796;9.026;2023-04-20T03:31:30;7.10;;;5.77;;
15297;SDS011;7750;48.796;9.026;2023-04-20T03:36:31;5.77;;;5.10;;
15297;SDS011;7750;48.796;9.026;2023-04-20T03:41:32;7.17;;;5.43;;
15297;SDS011;7750;48.796;9.026;2023-04-20T03:46:33;7.07;;;5.77;;
15297;SDS011;7750;48.796;9.026;2023-04-20T03:51:33;6.63;;;5.60;;
15297;SDS011;7750;48.796;9.026;2023-04-20T03:56:34;6.40;;;5.60;;
15297;SDS011;7750;48.796;9.026;2023-04-20T04:01:35;10.30;;;5.83;;
15297;SDS011;7750;48.796;9.026;2023-04-20T04:06:38;6.57;;;5.47;;
15297;SDS011;7750;48.796;9.026;2023-04-20T04:11:38;7.43;;;5.87;;
15297;SDS011;7750;48.796;9.026;2023-04-20T04:16:39;6.13;;;5.20;;
15297;SDS011;7750;48.796;9.026;2023-04-20T04:21:39;7.27;;;5.87;;
15297;SDS011;7750;48.796;9.026;2023-04-20T04:26:40;6.67;;;5.77;;
15297;SDS011;7750;48.796;9.026;2023-04-20T04:31:41;7.43;;;6.07;;
15297;SDS011;7750;48.796;9.026;2023-04-20T04:36:42;9.70;;;5.80;;
15297;SDS011;7750;48.796;9.026;2023-04-20T04:41:43;8.90;;;6.03;;
15297;SDS011;7750;48.796;9.026;2023-04-20T04:46:43;7.70;;;6.27;;
15297;SDS011;7750;48.796;9.026;2023-04-20T04:51:46;8.00;;;5.80;;
15297;SDS011;7750;48.796;9.026;2023-04-20T04:56:47;6.50;;;5.43;;
15297;SDS011;7750;48.796;9.026;2023-04-20T05:01:47;6.67;;;5.67;;
15297;SDS011;7750;48.796;9.026;2023-04-20T05:06:48;7.00;;;5.47;;
15297;SDS011;7750;48.796;9.026;2023-04-20T05:11:48;9.43;;;5.40;;
15297;SDS011;7750;48.796;9.026;2023-04-20T05:16:49;8.67;;;6.97;;
15297;SDS011;7750;48.796;9.026;2023-04-20T05:21:50;10.17;;;7.40;;
15297;SDS011;7750;48.796;9.026;2023-04-20T05:26:51;9.10;;;6.57;;
15297;SDS011;7750;48.796;9.026;2023-04-20T05:31:51;11.50;;;7.23;;
15297;SDS011;7750;48.796;9.026;2023-04-20T05:36:52;8.47;;;7.20;;
15297;SDS011;7750;48.796;9.026;2023-04-20T05:41:53;9.10;;;7.60;;
15297;SDS011;7750;48.796;9.026;2023-04-20T05:46:54;10.20;;;8.07;;
15297;SDS011;7750;48.796;9.026;2023-04-20T05:51:55;15.20;;;8.17;;
15297;SDS011;7750;48.796;9.026;2023-04-20T05:56:56;10.80;;;7.23;;
15297;SDS011;7750;48.796;9.026;2023-04-20T06:01:57;9.67;;;7.83;;
15297;SDS011;7750;48.796;9.026;2023-04-20T06:06:58;9.40;;;8.30;;
15297;SDS011;7750;48.796;9.026;2023-04-20T06:11:59;7.43;;;5.73;;
15297;SDS011;7750;48.796;9.026;2023-04-20T06:17:01;9.33;;;7.00;;
15297;SDS011;7750;48.796;9.026;2023-04-20T06:22:08;10.63;;;7.10;;
15297;SDS011;7750;48.796;9.026;2023-04-20T06:27:09;9.37;;;7.10;;
15297;SDS011;7750;48.796;9.026;2023-04-20T06:32:10;8.93;;;7.17;;
15297;SDS011;7750;48.796;9.026;2023-04-20T06:37:11;12.03;;;7.30;;
15297;SDS011;7750;48.796;9.026;2023-04-20T06:42:12;12.57;;;8.00;;
15297;SDS011;7750;48.796;9.026;2023-04-20T06:47:13;16.53;;;7.57;;
15297;SDS011;7750;48.796;9.026;2023-04-20T06:52:13;9.37;;;7.30;;
15297;SDS011;7750;48.796;9.026;2023-04-20T06:57:14;8.00;;;7.20;;
15297;SDS011;7750;48.796;9.026;2023-04-20T07:02:15;14.40;;;6.87;;
15297;SDS011;7750;48.796;9.026;2023-04-20T07:07:15;9.10;;;7.10;;
15297;SDS011;7750;48.796;9.026;2023-04-20T07:12:16;9.73;;;7.40;;
15297;SDS011;7750;48.796;9.026;2023-04-20T07:17:17;9.53;;;7.47;;
15297;SDS011;7750;48.796;9.026;2023-04-20T07:22:17;9.20;;;7.73;;
15297;SDS011;7750;48.796;9.026;2023-04-20T07:27:18;8.73;;;7.03;;
15297;SDS011;7750;48.796;9.026;2023-04-20T07:32:19;8.23;;;6.33;;
15297;SDS011;7750;48.796;9.026;2023-04-20T07:37:19;10.43;;;7.20;;
15297;SDS011;7750;48.796;9.026;2023-04-20T07:42:20;10.67;;;6.93;;
15297;SDS011;7750;48.796;9.026;2023-04-20T07:47:21;12.80;;;7.10;;
15297;SDS011;7750;48.796;9.026;2023-04-20T07:52:22;9.87;;;7.77;;
15297;SDS011;7750;48.796;9.026;2023-04-20T07:57:23;9.97;;;7.27;;
15297;SDS011;7750;48.796;9.026;2023-04-20T08:02:25;8.50;;;6.83;;
15297;SDS011;7750;48.796;9.026;2023-04-20T08:07:25;7.77;;;6.33;;
15297;SDS011;7750;48.796;9.026;2023-04-20T08:12:26;10.23;;;7.57;;
15297;SDS011;7750;48.796;9.026;2023-04-20T08:17:26;9.63;;;7.10;;
15297;SDS011;7750;48.796;9.026;2023-04-20T08:22:27;7.50;;;6.40;;
15297;SDS011;7750;48.796;9.026;2023-04-20T08:27:29;8.90;;;7.17;;
15297;SDS011;7750;48.796;9.026;2023-04-20T08:32:30;11.87;;;7.47;;
15297;SDS011;7750;48.796;9.026;2023-04-20T08:37:30;10.17;;;7.17;;
15297;SDS011;7750;48.796;9.026;2023-04-20T08:42:31;9.13;;;7.73;;
15297;SDS011;7750;48.796;9.026;2023-04-20T08:47:31;10.10;;;7.30;;
15297;SDS011;7750;48.796;9.026;2023-04-20T08:52:33;10.20;;;7.63;;
15297;SDS011;7750;48.796;9.026;2023-04-20T08:57:34;9.13;;;7.50;;
15297;SDS011;7750;48.796;9.026;2023-04-20T09:02:51;12.50;;;7.10;;
15297;SDS011;7750;48.796;9.026;2023-04-20T09:07:56;12.33;;;8.03;;
15297;SDS011;7750;48.796;9.026;2023-04-20T09:12:58;10.30;;;6.90;;
15297;SDS011;7750;48.796;9.026;2023-04-20T09:18:09;9.13;;;7.87;;
15297;SDS011;7750;48.796;9.026;2023-04-20T09:23:17;10.67;;;8.10;;
15297;SDS011;7750;48.796;9.026;2023-04-20T09:28:20;8.47;;;7.57;;
15297;SDS011;7750;48.796;9.026;2023-04-20T09:33:26;10.23;;;7.70;;
15297;SDS011;7750;48.796;9.026;2023-04-20T09:38:28;12.20;;;9.10;;
15297;SDS011;7750;48.796;9.026;2023-04-20T09:43:30;10.93;;;7.50;;
15297;SDS011;7750;48.796;9.026;2023-04-20T09:48:33;10.77;;;8.47;;
15297;SDS011;7750;48.796;9.026;2023-04-20T09:53:34;8.87;;;7.00;;
15297;SDS011;7750;48.796;9.026;2023-04-20T09:58:35;10.40;;;7.40;;
15297;SDS011;7750;48.796;9.026;2023-04-20T10:03:39;8.33;;;6.97;;
15297;SDS011;7750;48.796;9.026;2023-04-20T10:08:41;9.23;;;7.30;;
15297;SDS011;7750;48.796;9.026;2023-04-20T10:13:42;9.77;;;7.30;;
15297;SDS011;7750;48.796;9.026;2023-04-20T10:18:43;10.77;;;7.43;;
15297;SDS011;7750;48.796;9.026;2023-04-20T10:23:54;9.93;;;7.67;;
15297;SDS011;7750;48.796;9.026;2023-04-20T10:28:57;9.90;;;7.20;;
15297;SDS011;7750;48.796;9.026;2023-04-20T10:33:58;8.83;;;7.13;;
15297;SDS011;7750;48.796;9.026;2023-04-20T10:38:59;9.53;;;7.70;;
15297;SDS011;7750;48.796;9.026;2023-04-20T10:44:08;10.47;;;7.20;;
15297;SDS011;7750;48.796;9.026;2023-04-20T10:49:08;9.40;;;7.10;;
15297;SDS011;7750;48.796;9.026;2023-04-20T10:54:09;10.27;;;8.30;;
15297;SDS011;7750;48.796;9.026;2023-04-20T10:59:11;11.83;;;8.53;;
15297;SDS011;7750;48.796;9.026;2023-04-20T11:04:13;12.20;;;8.47;;
15297;SDS011;7750;48.796;9.026;2023-04-20T11:09:15;9.17;;;7.27;;
15297;SDS011;7750;48.796;9.026;2023-04-20T11:14:20;11.17;;;7.43;;
15297;SDS011;7750;48.796;9.026;2023-04-20T11:19:24;8.00;;;7.10;;
15297;SDS011;7750;48.796;9.026;2023-04-20T11:24:27;10.57;;;7.63;;
15297;SDS011;7750;48.796;9.026;2023-04-20T11:29:30;7.43;;;6.43;;
15297;SDS011;7750;48.796;9.026;2023-04-20T11:34:36;7.80;;;6.73;;
15297;SDS011;7750;48.796;9.026;2023-04-20T11:39:38;7.97;;;6.60;;
15297;SDS011;7750;48.796;9.026;2023-04-20T11:44:39;10.43;;;6.97;;
15297;SDS011;7750;48.796;9.026;2023-04-20T11:49:41;6.50;;;5.50;;
15297;SDS011;7750;48.796;9.026;2023-04-20T11:54:42;8.00;;;6.03;;
15297;SDS011;7750;48.796;9.026;2023-04-20T11:59:43;8.90;;;6.57;;
15297;SDS011;7750;48.796;9.026;2023-04-20T12:04:46;7.30;;;6.13;;
15297;SDS011;7750;48.796;9.026;2023-04-20T12:09:47;10.53;;;8.80;;
15297;SDS011;7750;48.796;9.026;2023-04-20T12:14:48;6.87;;;5.93;;
15297;SDS011;7750;48.796;9.026;2023-04-20T12:19:49;8.13;;;6.27;;
15297;SDS011;7750;48.796;9.026;2023-04-20T12:24:49;7.53;;;6.07;;
15297;SDS011;7750;48.796;9.026;2023-04-20T12:29:50;7.83;;;5.93;;
15297;SDS011;7750;48.796;9.026;2023-04-20T12:34:51;6.53;;;5.83;;
15297;SDS011;7750;48.796;9.026;2023-04-20T12:39:52;8.50;;;6.93;;
15297;SDS011;7750;48.796;9.026;2023-04-20T12:44:52;8.17;;;6.40;;
15297;SDS011;7750;48.796;9.026;2023-04-20T12:49:53;8.43;;;6.90;;
15297;SDS011;7750;48.796;9.026;2023-04-20T12:54:54;9.50;;;7.90;;
15297;SDS011;7750;48.796;9.026;2023-04-20T12:59:54;13.63;;;8.00;;
15297;SDS011;7750;48.796;9.026;2023-04-20T13:04:55;10.43;;;8.33;;
15297;SDS011;7750;48.796;9.026;2023-04-20T13:09:56;9.20;;;8.03;;
15297;SDS011;7750;48.796;9.026;2023-04-20T13:14:57;10.27;;;7.37;;
15297;SDS011;7750;48.796;9.026;2023-04-20T13:19:57;8.73;;;7.20;;
15297;SDS011;7750;48.796;9.026;2023-04-20T13:24:58;9.80;;;7.93;;
15297;SDS011;7750;48.796;9.026;2023-04-20T13:29:59;9.27;;;8.33;;
15297;SDS011;7750;48.796;9.026;2023-04-20T13:35:00;9.87;;;8.40;;
15297;SDS011;7750;48.796;9.026;2023-04-20T13:40:01;9.47;;;8.37;;
15297;SDS011;7750;48.796;9.026;2023-04-20T13:45:03;9.20;;;7.67;;
15297;SDS011;7750;48.796;9.026;2023-04-20T13:50:05;12.23;;;7.90;;
15297;SDS011;7750;48.796;9.026;2023-04-20T13:55:06;11.37;;;9.30;;
15297;SDS011;7750;48.796;9.026;2023-04-20T14:00:07;19.90;;;9.67;;
15297;SDS011;7750;48.796;9.026;2023-04-20T14:05:08;10.87;;;8.27;;
15297;SDS011;7750;48.796;9.026;2023-04-20T14:10:09;17.57;;;8.60;;
15297;SDS011;7750;48.796;9.026;2023-04-20T14:15:10;8.30;;;7.33;;
15297;SDS011;7750;48.796;9.026;2023-04-20T14:20:12;9.70;;;7.20;;
15297;SDS011;7750;48.796;9.026;2023-04-20T14:25:12;15.10;;;8.60;;
15297;SDS011;7750;48.796;9.026;2023-04-20T14:30:13;10.23;;;8.57;;
15297;SDS011;7750;48.796;9.026;2023-04-20T14:35:14;8.70;;;7.20;;
15297;SDS011;7750;48.796;9.026;2023-04-20T14:40:15;9.70;;;8.33;;
15297;SDS011;7750;48.796;9.026;2023-04-20T14:45:16;10.00;;;8.60;;
15297;SDS011;7750;48.796;9.026;2023-04-20T14:50:16;11.70;;;9.53;;
15297;SDS011;7750;48.796;9.026;2023-04-20T14:55:17;10.77;;;7.77;;
15297;SDS011;7750;48.796;9.026;2023-04-20T15:00:22;12.93;;;6.90;;
15297;SDS011;7750;48.796;9.026;2023-04-20T15:05:25;8.00;;;7.20;;
15297;SDS011;7750;48.796;9.026;2023-04-20T15:10:26;9.67;;;7.77;;
15297;SDS011;7750;48.796;9.026;2023-04-20T15:15:26;8.77;;;7.33;;
15297;SDS011;7750;48.796;9.026;2023-04-20T15:20:27;9.03;;;7.43;;
15297;SDS011;7750;48.796;9.026;2023-04-20T15:25:28;10.67;;;7.80;;
15297;SDS011;7750;48.796;9.026;2023-04-20T15:30:28;7.70;;;6.90;;
15297;SDS011;7750;48.796;9.026;2023-04-20T15:35:29;8.17;;;7.23;;
15297;SDS011;7750;48.796;9.026;2023-04-20T15:40:30;6.93;;;5.73;;
15297;SDS011;7750;48.796;9.026;2023-04-20T15:45:30;8.00;;;6.30;;
15297;SDS011;7750;48.796;9.026;2023-04-20T15:50:31;7.80;;;6.50;;
15297;SDS011;7750;48.796;9.026;2023-04-20T15:55:32;8.20;;;7.27;;
15297;SDS011;7750;48.796;9.026;2023-04-20T16:00:34;6.37;;;5.77;;
15297;SDS011;7750;48.796;9.026;2023-04-20T16:05:35;7.20;;;6.50;;
15297;SDS011;7750;48.796;9.026;2023-04-20T16:10:35;7.63;;;6.83;;
15297;SDS011;7750;48.796;9.026;2023-04-20T16:15:37;6.90;;;5.93;;
15297;SDS011;7750;48.796;9.026;2023-04-20T16:20:37;6.23;;;5.63;;
15297;SDS011;7750;48.796;9.026;2023-04-20T16:25:38;10.40;;;7.10;;
15297;SDS011;7750;48.796;9.026;2023-04-20T16:30:39;7.70;;;6.93;;
15297;SDS011;7750;48.796;9.026;2023-04-20T16:35:39;7.67;;;6.87;;
15297;SDS011;7750;48.796;9.026;2023-04-20T16:40:40;8.83;;;7.63;;
15297;SDS011;7750;48.796;9.026;2023-04-20T16:45:42;7.40;;;6.43;;
15297;SDS011;7750;48.796;9.026;2023-04-20T16:50:43;8.77;;;7.33;;
15297;SDS011;7750;48.796;9.026;2023-04-20T16:55:43;8.33;;;7.43;;
15297;SDS011;7750;48.796;9.026;2023-04-20T17:00:44;9.40;;;8.40;;
15297;SDS011;7750;48.796;9.026;2023-04-20T17:05:44;8.83;;;7.33;;
15297;SDS011;7750;48.796;9.026;2023-04-20T17:10:45;10.73;;;7.60;;
15297;SDS011;7750;48.796;9.026;2023-04-20T17:15:46;8.53;;;7.03;;
15297;SDS011;7750;48.796;9.026;2023-04-20T17:20:46;9.30;;;7.50;;
15297;SDS011;7750;48.796;9.026;2023-04-20T17:25:47;10.77;;;8.70;;
15297;SDS011;7750;48.796;9.026;2023-04-20T17:30:48;11.70;;;7.93;;
15297;SDS011;7750;48.796;9.026;2023-04-20T17:35:49;7.83;;;7.03;;
15297;SDS011;7750;48.796;9.026;2023-04-20T17:40:50;8.53;;;7.43;;
15297;SDS011;7750;48.796;9.026;2023-04-20T17:45:50;7.90;;;7.10;;
15297;SDS011;7750;48.796;9.026;2023-04-20T17:50:51;9.57;;;8.33;;
15297;SDS011;7750;48.796;9.026;2023-04-20T17:55:51;9.70;;;8.37;;
15297;SDS011;7750;48.796;9.026;2023-04-20T18:00:52;9.33;;;7.80;;
15297;SDS011;7750;48.796;9.026;2023-04-20T18:05:53;10.70;;;8.40;;
15297;SDS011;7750;48.796;9.026;2023-04-20T18:10:53;9.00;;;8.00;;
15297;SDS011;7750;48.796;9.026;2023-04-20T18:15:54;9.90;;;8.87;;
15297;SDS011;7750;48.796;9.026;2023-04-20T18:20:54;10.33;;;9.23;;
15297;SDS011;7750;48.796;9.026;2023-04-20T18:25:55;9.13;;;8.13;;
15297;SDS011;7750;48.796;9.026;2023-04-20T18:30:56;12.60;;;9.63;;
15297;SDS011;7750;48.796;9.026;2023-04-20T18:35:56;10.80;;;9.60;;
15297;SDS011;7750;48.796;9.026;2023-04-20T18:40:57;13.03;;;11.27;;
15297;SDS011;7750;48.796;9.026;2023-04-20T18:45:58;10.73;;;9.27;;
15297;SDS011;7750;48.796;9.026;2023-04-20T18:50:59;16.57;;;13.27;;
15297;SDS011;7750;48.796;9.026;2023-04-20T18:56:06;13.90;;;10.13;;
15297;SDS011;7750;48.796;9.026;2023-04-20T19:01:22;11.60;;;10.20;;
15297;SDS011;7750;48.796;9.026;2023-04-20T19:16:54;11.10;;;8.57;;
15297;SDS011;7750;48.796;9.026;2023-04-20T19:22:06;13.07;;;9.97;;
15297;SDS011;7750;48.796;9.026;2023-04-20T19:27:07;13.23;;;10.90;;
15297;SDS011;7750;48.796;9.026;2023-04-20T19:32:10;10.60;;;9.50;;
15297;SDS011;7750;48.796;9.026;2023-04-20T19:37:11;9.83;;;8.87;;
15297;SDS011;7750;48.796;9.026;2023-04-20T19:42:12;10.60;;;8.70;;
15297;SDS011;7750;48.796;9.026;2023-04-20T19:47:12;12.17;;;9.80;;
15297;SDS011;7750;48.796;9.026;2023-04-20T19:52:14;12.07;;;10.40;;
15297;SDS011;7750;48.796;9.026;2023-04-20T19:57:14;12.63;;;11.20;;
15297;SDS011;7750;48.796;9.026;2023-04-20T20:02:15;13.10;;;10.47;;
15297;SDS011;7750;48.796;9.026;2023-04-20T20:07:16;10.77;;;9.23;;
15297;SDS011;7750;48.796;9.026;2023-04-20T20:12:17;12.37;;;9.87;;
15297;SDS011;7750;48.796;9.026;2023-04-20T20:17:17;14.00;;;11.83;;
15297;SDS011;7750;48.796;9.026;2023-04-20T20:22:18;11.80;;;10.43;;
15297;SDS011;7750;48.796;9.026;2023-04-20T20:27:19;13.33;;;10.07;;
15297;SDS011;7750;48.796;9.026;2023-04-20T20:32:20;10.93;;;9.77;;
15297;SDS011;7750;48.796;9.026;2023-04-20T20:37:21;12.50;;;10.70;;
15297;SDS011;7750;48.796;9.026;2023-04-20T20:42:21;10.57;;;9.20;;
15297;SDS011;7750;48.796;9.026;2023-04-20T20:47:22;11.53;;;9.30;;
15297;SDS011;7750;48.796;9.026;2023-04-20T20:52:23;9.97;;;9.00;;
15297;SDS011;7750;48.796;9.026;2023-04-20T20:57:24;10.43;;;8.03;;
15297;SDS011;7750;48.796;9.026;2023-04-20T22:28:22;11.83;;;10.07;;
15297;SDS011;7750;48.796;9.026;2023-04-20T22:33:36;11.20;;;10.07;;
